Time;durP1;ratioP1;P1;durP2;ratioP2;P2;SDS_P1;SDS_P2;PMS_P1;PMS_P2;Temp;Humidity;BMP_temperature;BMP_pressure;BME280_temperature;BME280_humidity;BME280_pressure;Samples;Min_cycle;Max_cycle;Signal;HPM_P1;HPM_P2
2023/03/02 00:02:21;;;;;;;80.93;14.48;;;;;;;;;;5032078;28;20095;-36
2023/03/02 00:04:53;;;;;;;101.40;17.13;;;;;;;;;;5028669;28;20045;-40
2023/03/02 00:07:23;;;;;;;115.38;18.33;;;;;;;;;;5028352;28;20617;-36
2023/03/02 00:09:51;;;;;;;100.10;18.13;;;;;;;;;;5014890;28;20030;-41
2023/03/02 00:12:17;;;;;;;136.02;20.73;;;;;;;;;;5012775;28;20087;-43
2023/03/02 00:14:44;;;;;;;127.72;21.33;;;;;;;;;;5011499;28;20022;-40
2023/03/02 00:17:14;;;;;;;154.23;23.50;;;;;;;;;;5011203;28;20049;-37
2023/03/02 00:19:43;;;;;;;125.25;20.02;;;;;;;;;;5011418;28;20026;-39
2023/03/02 00:22:10;;;;;;;116.55;20.90;;;;;;;;;;5011104;28;20037;-40
2023/03/02 00:24:37;;;;;;;116.43;19.85;;;;;;;;;;5011281;28;20030;-39
2023/03/02 00:27:05;;;;;;;127.45;21.73;;;;;;;;;;5011228;28;20492;-38
2023/03/02 00:29:31;;;;;;;143.32;24.35;;;;;;;;;;5014215;28;20030;-40
2023/03/02 00:31:59;;;;;;;121.13;22.17;;;;;;;;;;5010895;28;20061;-39
2023/03/02 00:34:26;;;;;;;178.27;30.90;;;;;;;;;;4993598;28;20504;-39
2023/03/02 00:36:53;;;;;;;176.95;33.33;;;;;;;;;;4993388;28;20046;-42
2023/03/02 00:39:20;;;;;;;128.77;26.48;;;;;;;;;;5013176;28;20061;-37
2023/03/02 00:41:48;;;;;;;167.55;30.75;;;;;;;;;;4993255;28;20083;-37
2023/03/02 00:44:16;;;;;;;237.10;40.13;;;;;;;;;;5010963;28;20065;-36
2023/03/02 00:46:43;;;;;;;229.63;40.78;;;;;;;;;;5025557;28;20025;-38
2023/03/02 00:49:11;;;;;;;237.05;40.33;;;;;;;;;;5031350;28;20045;-37
2023/03/02 00:51:38;;;;;;;254.60;39.95;;;;;;;;;;5031479;28;20018;-37
2023/03/02 00:54:05;;;;;;;289.95;44.03;;;;;;;;;;5031446;28;20033;-39
2023/03/02 00:56:32;;;;;;;287.30;45.83;;;;;;;;;;5031255;28;20040;-37
2023/03/02 00:58:59;;;;;;;280.30;48.15;;;;;;;;;;5031325;28;20381;-39
2023/03/02 01:01:26;;;;;;;288.65;47.70;;;;;;;;;;5031219;28;20112;-39
2023/03/02 01:03:53;;;;;;;305.63;48.90;;;;;;;;;;5013326;28;20029;-38
2023/03/02 01:06:21;;;;;;;284.33;48.33;;;;;;;;;;5012688;28;20040;-39
2023/03/02 01:08:48;;;;;;;268.25;47.10;;;;;;;;;;5031050;28;20099;-37
2023/03/02 01:11:17;;;;;;;243.55;45.55;;;;;;;;;;5030707;28;20033;-37
2023/03/02 01:13:44;;;;;;;239.43;44.88;;;;;;;;;;5012872;28;20149;-37
2023/03/02 01:16:11;;;;;;;254.80;45.97;;;;;;;;;;5029082;28;20041;-39
2023/03/02 01:18:38;;;;;;;270.05;63.90;;;;;;;;;;5030594;28;20036;-38
2023/03/02 01:21:07;;;;;;;328.15;76.20;;;;;;;;;;5030086;28;20025;-37
2023/03/02 01:23:35;;;;;;;386.75;87.57;;;;;;;;;;5029795;28;20457;-39
2023/03/02 01:26:02;;;;;;;356.05;89.72;;;;;;;;;;5030263;28;20048;-37
2023/03/02 01:28:29;;;;;;;337.45;85.28;;;;;;;;;;5029924;28;20049;-39
2023/03/02 01:30:56;;;;;;;321.48;82.25;;;;;;;;;;5029625;28;20029;-38
2023/03/02 01:33:23;;;;;;;323.88;80.07;;;;;;;;;;5030140;28;20104;-39
2023/03/02 01:35:50;;;;;;;302.52;76.20;;;;;;;;;;5030789;28;20487;-37
2023/03/02 01:38:17;;;;;;;286.38;73.28;;;;;;;;;;5030268;28;20029;-37
2023/03/02 01:40:44;;;;;;;254.60;66.95;;;;;;;;;;5030527;28;20068;-36
2023/03/02 01:43:15;;;;;;;240.70;64.13;;;;;;;;;;5012670;28;20555;-38
2023/03/02 01:45:50;;;;;;;227.95;61.33;;;;;;;;;;5012345;28;20027;-39
2023/03/02 01:48:20;;;;;;;210.70;60.25;;;;;;;;;;5012493;28;20033;-37
2023/03/02 01:50:47;;;;;;;191.90;55.83;;;;;;;;;;5030325;28;20086;-37
2023/03/02 01:53:15;;;;;;;196.18;52.25;;;;;;;;;;5030366;28;20017;-37
2023/03/02 01:55:43;;;;;;;187.90;54.63;;;;;;;;;;5012376;28;20052;-35
2023/03/02 01:58:11;;;;;;;176.32;50.97;;;;;;;;;;5012121;28;20021;-37
2023/03/02 02:00:39;;;;;;;164.50;47.92;;;;;;;;;;5030221;28;20033;-39
2023/03/02 02:03:12;;;;;;;146.75;45.63;;;;;;;;;;5012190;28;20051;-36
2023/03/02 02:05:41;;;;;;;153.70;43.97;;;;;;;;;;5029950;28;20048;-35
2023/03/02 02:08:08;;;;;;;146.80;42.25;;;;;;;;;;5030210;28;20034;-36
2023/03/02 02:10:36;;;;;;;141.43;41.85;;;;;;;;;;5030237;28;20476;-35
2023/03/02 02:13:03;;;;;;;156.30;39.50;;;;;;;;;;5030657;28;20766;-35
2023/03/02 02:15:31;;;;;;;155.25;39.38;;;;;;;;;;5030146;28;20048;-37
2023/03/02 02:17:58;;;;;;;136.93;38.17;;;;;;;;;;5029819;28;20399;-35
2023/03/02 02:20:36;;;;;;;130.68;36.33;;;;;;;;;;5030308;28;20108;-36
2023/03/02 02:23:22;;;;;;;144.55;36.85;;;;;;;;;;5018068;28;20034;-35
2023/03/02 02:25:54;;;;;;;141.18;36.28;;;;;;;;;;5017834;28;20044;-36
2023/03/02 02:28:39;;;;;;;138.63;34.50;;;;;;;;;;5018502;28;20034;-37
2023/03/02 02:31:29;;;;;;;132.50;34.70;;;;;;;;;;5011133;28;20091;-38
2023/03/02 02:34:00;;;;;;;112.40;32.22;;;;;;;;;;5012291;28;20045;-38
2023/03/02 02:36:32;;;;;;;145.60;26.98;;;;;;;;;;5022510;28;20065;-34
2023/03/02 02:39:02;;;;;;;131.32;21.52;;;;;;;;;;5021549;28;20480;-36
2023/03/02 02:41:31;;;;;;;127.00;21.05;;;;;;;;;;5020758;28;20387;-33
2023/03/02 02:43:58;;;;;;;154.32;24.52;;;;;;;;;;5022373;28;20083;-35
2023/03/02 02:46:25;;;;;;;175.73;25.33;;;;;;;;;;5022565;28;20037;-36
2023/03/02 02:48:53;;;;;;;174.73;24.45;;;;;;;;;;5030633;28;20137;-36
2023/03/02 02:51:23;;;;;;;152.30;21.85;;;;;;;;;;5030273;28;20038;-35
2023/03/02 02:54:00;;;;;;;144.40;18.63;;;;;;;;;;5030282;28;20040;-36
2023/03/02 02:56:29;;;;;;;245.82;31.08;;;;;;;;;;5030401;28;20504;-35
2023/03/02 02:58:58;;;;;;;464.98;54.50;;;;;;;;;;5030473;28;20038;-36
2023/03/02 03:01:25;;;;;;;405.42;50.25;;;;;;;;;;5030495;28;20151;-36
2023/03/02 03:03:53;;;;;;;295.50;39.72;;;;;;;;;;5021418;28;20022;-33
2023/03/02 03:06:24;;;;;;;257.88;33.35;;;;;;;;;;5010782;28;20508;-33
2023/03/02 03:08:58;;;;;;;214.05;28.38;;;;;;;;;;5010752;28;20046;-36
2023/03/02 03:11:27;;;;;;;216.38;26.83;;;;;;;;;;5010643;28;20034;-37
2023/03/02 03:14:14;;;;;;;206.82;25.73;;;;;;;;;;5010705;28;20030;-36
2023/03/02 03:16:42;;;;;;;186.10;21.27;;;;;;;;;;4992761;28;20092;-35
2023/03/02 03:19:17;;;;;;;323.25;39.13;;;;;;;;;;5010761;28;20032;-35
2023/03/02 03:21:44;;;;;;;616.40;75.07;;;;;;;;;;5010743;28;20088;-36
2023/03/02 03:24:11;;;;;;;500.00;61.15;;;;;;;;;;5010623;28;20042;-36
2023/03/02 03:26:38;;;;;;;394.23;51.53;;;;;;;;;;5010616;28;20054;-37
2023/03/02 03:29:05;;;;;;;318.42;39.83;;;;;;;;;;5012827;28;20100;-36
2023/03/02 03:31:33;;;;;;;343.20;42.53;;;;;;;;;;5013883;28;20407;-35
2023/03/02 03:34:00;;;;;;;285.02;36.45;;;;;;;;;;5014006;28;20425;-37
2023/03/02 03:36:28;;;;;;;269.95;33.90;;;;;;;;;;5014083;28;20049;-36
2023/03/02 03:38:56;;;;;;;251.82;31.88;;;;;;;;;;5013891;28;20060;-36
2023/03/02 03:41:23;;;;;;;294.73;33.20;;;;;;;;;;5013876;28;20034;-36
2023/03/02 03:43:51;;;;;;;279.08;32.25;;;;;;;;;;5013923;28;20042;-36
2023/03/02 03:46:18;;;;;;;334.40;37.05;;;;;;;;;;5013922;28;20026;-36
2023/03/02 03:48:46;;;;;;;368.63;40.70;;;;;;;;;;5013717;28;20053;-35
2023/03/02 03:51:12;;;;;;;370.60;38.67;;;;;;;;;;5013688;28;20104;-35
2023/03/02 03:53:39;;;;;;;290.98;34.30;;;;;;;;;;4996396;28;20037;-35
2023/03/02 03:56:07;;;;;;;278.60;30.58;;;;;;;;;;5013632;28;20036;-35
2023/03/02 03:58:34;;;;;;;239.07;25.02;;;;;;;;;;5013698;28;20038;-36
2023/03/02 04:01:02;;;;;;;202.40;22.23;;;;;;;;;;5013388;28;20030;-35
2023/03/02 04:03:29;;;;;;;181.60;21.95;;;;;;;;;;5013350;28;20064;-35
2023/03/02 04:05:56;;;;;;;166.00;20.95;;;;;;;;;;5013406;28;20022;-36
2023/03/02 04:08:23;;;;;;;158.43;19.80;;;;;;;;;;5013500;28;20053;-35
2023/03/02 04:10:50;;;;;;;178.65;22.25;;;;;;;;;;5013258;28;20022;-36
2023/03/02 04:13:17;;;;;;;205.50;24.80;;;;;;;;;;5013437;28;20037;-36
2023/03/02 04:15:44;;;;;;;241.82;27.15;;;;;;;;;;5013157;28;20092;-36
2023/03/02 04:18:11;;;;;;;300.55;34.53;;;;;;;;;;5013211;28;20022;-36
2023/03/02 04:20:38;;;;;;;175.48;22.17;;;;;;;;;;5013122;28;20065;-36
2023/03/02 04:23:05;;;;;;;158.73;19.42;;;;;;;;;;5013178;28;20053;-36
2023/03/02 04:25:32;;;;;;;136.70;17.88;;;;;;;;;;5013158;28;20476;-36
2023/03/02 04:27:59;;;;;;;113.95;13.63;;;;;;;;;;5012969;28;20045;-35
2023/03/02 04:30:26;;;;;;;101.43;13.45;;;;;;;;;;5012815;28;20073;-36
2023/03/02 04:32:56;;;;;;;124.30;14.77;;;;;;;;;;5012946;28;20037;-35
2023/03/02 04:35:24;;;;;;;98.53;11.77;;;;;;;;;;5012768;28;20029;-36
2023/03/02 04:37:51;;;;;;;89.30;10.73;;;;;;;;;;5012799;28;20042;-36
2023/03/02 04:40:18;;;;;;;105.82;12.65;;;;;;;;;;5012711;28;20145;-36
2023/03/02 04:42:45;;;;;;;143.63;13.55;;;;;;;;;;5012849;28;20105;-36
2023/03/02 04:45:12;;;;;;;114.18;14.52;;;;;;;;;;5012735;28;20018;-35
2023/03/02 04:47:39;;;;;;;104.60;12.95;;;;;;;;;;5012771;28;20025;-38
2023/03/02 04:50:07;;;;;;;89.00;11.73;;;;;;;;;;5012562;28;20034;-35
2023/03/02 04:52:34;;;;;;;72.70;10.10;;;;;;;;;;5012699;28;20080;-36
2023/03/02 04:55:01;;;;;;;87.88;11.77;;;;;;;;;;5012553;28;20496;-36
2023/03/02 04:57:28;;;;;;;61.30;8.23;;;;;;;;;;5012523;28;20105;-35
2023/03/02 04:59:55;;;;;;;52.30;7.13;;;;;;;;;;5012808;28;20029;-35
2023/03/02 05:02:22;;;;;;;45.20;6.57;;;;;;;;;;5012449;28;20026;-39
2023/03/02 05:04:49;;;;;;;45.72;7.05;;;;;;;;;;5012453;28;20033;-36
2023/03/02 05:07:15;;;;;;;45.05;6.03;;;;;;;;;;5012337;28;20080;-35
2023/03/02 05:09:42;;;;;;;40.88;5.55;;;;;;;;;;5012039;28;20435;-36
2023/03/02 05:12:09;;;;;;;33.78;5.07;;;;;;;;;;5012272;28;20112;-36
2023/03/02 05:14:36;;;;;;;32.85;5.60;;;;;;;;;;5012109;28;20088;-35
2023/03/02 05:17:03;;;;;;;49.03;5.82;;;;;;;;;;5012080;28;20052;-36
2023/03/02 05:19:30;;;;;;;37.65;5.20;;;;;;;;;;5011981;28;20468;-36
2023/03/02 05:21:57;;;;;;;36.20;5.72;;;;;;;;;;5012083;28;20092;-36
2023/03/02 05:24:24;;;;;;;35.90;6.10;;;;;;;;;;5011993;28;20049;-35
2023/03/02 05:26:51;;;;;;;35.97;5.57;;;;;;;;;;5011937;28;20032;-32
2023/03/02 05:29:18;;;;;;;35.03;5.00;;;;;;;;;;5011849;28;20042;-33
2023/03/02 05:31:46;;;;;;;34.38;5.43;;;;;;;;;;5011837;28;20110;-32
2023/03/02 05:34:15;;;;;;;27.17;5.28;;;;;;;;;;5011939;28;20029;-33
2023/03/02 05:36:42;;;;;;;36.78;5.28;;;;;;;;;;5011657;28;20030;-33
2023/03/02 05:39:09;;;;;;;30.33;4.97;;;;;;;;;;5011785;28;20056;-32
2023/03/02 05:41:36;;;;;;;28.95;4.60;;;;;;;;;;5011717;28;20029;-33
2023/03/02 05:44:04;;;;;;;23.88;4.53;;;;;;;;;;5011654;28;20555;-33
2023/03/02 05:46:31;;;;;;;36.97;6.35;;;;;;;;;;5011817;28;20484;-33
2023/03/02 05:49:01;;;;;;;40.20;5.68;;;;;;;;;;5011603;28;20041;-32
2023/03/02 05:51:28;;;;;;;35.13;5.22;;;;;;;;;;5011175;28;20541;-32
2023/03/02 05:53:55;;;;;;;26.30;4.90;;;;;;;;;;5011608;28;20064;-32
2023/03/02 05:56:22;;;;;;;23.83;4.15;;;;;;;;;;5011535;28;20125;-32
2023/03/02 05:58:49;;;;;;;40.58;3.88;;;;;;;;;;5011571;28;20045;-32
2023/03/02 06:01:16;;;;;;;27.17;4.05;;;;;;;;;;5019592;28;20033;-35
2023/03/02 06:03:43;;;;;;;32.45;4.82;;;;;;;;;;5050503;28;20078;-33
2023/03/02 06:06:14;;;;;;;32.58;3.85;;;;;;;;;;5050997;28;20479;-32
2023/03/02 06:08:42;;;;;;;35.47;3.60;;;;;;;;;;5050902;28;20052;-32
2023/03/02 06:11:09;;;;;;;38.80;4.10;;;;;;;;;;5050855;28;20025;-32
2023/03/02 06:13:37;;;;;;;33.97;3.30;;;;;;;;;;5050953;28;20021;-32
2023/03/02 06:16:04;;;;;;;24.67;2.40;;;;;;;;;;5050768;28;20076;-32
2023/03/02 06:18:31;;;;;;;26.98;3.22;;;;;;;;;;5050748;28;20043;-32
2023/03/02 06:20:58;;;;;;;26.33;2.50;;;;;;;;;;5050751;28;20061;-32
2023/03/02 06:23:25;;;;;;;18.88;2.70;;;;;;;;;;5050673;28;20037;-36
2023/03/02 06:25:52;;;;;;;12.85;2.05;;;;;;;;;;5050842;28;20029;-35
2023/03/02 06:28:20;;;;;;;21.85;2.45;;;;;;;;;;5050764;28;20029;-37
2023/03/02 06:30:48;;;;;;;18.98;2.50;;;;;;;;;;5050610;28;20433;-35
2023/03/02 06:33:19;;;;;;;25.05;2.40;;;;;;;;;;5050909;28;20033;-35
2023/03/02 06:35:47;;;;;;;14.85;2.00;;;;;;;;;;5050882;28;20055;-38
2023/03/02 06:38:14;;;;;;;12.15;2.33;;;;;;;;;;5016840;28;20048;-35
2023/03/02 06:40:41;;;;;;;19.85;2.95;;;;;;;;;;5050791;28;20029;-35
2023/03/02 06:43:08;;;;;;;20.63;2.58;;;;;;;;;;5050844;28;20041;-36
2023/03/02 06:45:36;;;;;;;15.45;2.17;;;;;;;;;;5050629;28;20123;-35
2023/03/02 06:48:03;;;;;;;23.00;2.75;;;;;;;;;;5050398;28;20440;-35
2023/03/02 06:50:30;;;;;;;17.10;2.83;;;;;;;;;;5050509;28;20064;-35
2023/03/02 06:52:57;;;;;;;14.85;2.78;;;;;;;;;;5050695;28;20044;-36
2023/03/02 06:55:24;;;;;;;19.42;2.97;;;;;;;;;;5050597;28;20090;-35
2023/03/02 06:57:51;;;;;;;27.58;2.80;;;;;;;;;;5050506;28;20108;-36
2023/03/02 07:00:24;;;;;;;21.40;3.03;;;;;;;;;;5050405;28;20060;-35
2023/03/02 07:02:52;;;;;;;25.60;3.42;;;;;;;;;;5050791;28;20037;-35
2023/03/02 07:05:19;;;;;;;22.38;3.40;;;;;;;;;;5054433;28;20032;-36
2023/03/02 07:07:46;;;;;;;25.50;3.83;;;;;;;;;;5054322;28;20092;-36
2023/03/02 07:10:13;;;;;;;29.08;3.38;;;;;;;;;;5054032;28;20040;-35
2023/03/02 07:12:41;;;;;;;26.65;3.40;;;;;;;;;;5054191;28;20111;-36
2023/03/02 07:15:10;;;;;;;29.48;3.25;;;;;;;;;;5053998;28;20037;-35
2023/03/02 07:17:38;;;;;;;22.52;3.05;;;;;;;;;;5053962;28;20509;-35
2023/03/02 07:20:05;;;;;;;24.88;3.03;;;;;;;;;;5054068;28;20052;-35
2023/03/02 07:22:32;;;;;;;26.98;3.35;;;;;;;;;;5053919;28;20028;-35
2023/03/02 07:24:59;;;;;;;17.42;2.40;;;;;;;;;;5054024;28;20083;-35
2023/03/02 07:27:26;;;;;;;22.25;3.28;;;;;;;;;;5054280;28;20529;-35
2023/03/02 07:29:53;;;;;;;19.52;3.03;;;;;;;;;;5053738;28;20090;-36
2023/03/02 07:32:20;;;;;;;22.92;2.75;;;;;;;;;;5053860;28;20029;-35
2023/03/02 07:34:47;;;;;;;18.33;3.05;;;;;;;;;;5053786;28;20025;-35
2023/03/02 07:37:14;;;;;;;23.58;3.13;;;;;;;;;;5053794;28;20044;-36
2023/03/02 07:39:41;;;;;;;26.20;3.33;;;;;;;;;;5053684;28;20063;-35
2023/03/02 07:42:10;;;;;;;22.88;2.83;;;;;;;;;;5053603;28;20060;-36
2023/03/02 07:44:37;;;;;;;27.75;3.22;;;;;;;;;;5053473;28;20037;-36
2023/03/02 07:47:04;;;;;;;18.70;3.17;;;;;;;;;;5053507;28;20104;-35
2023/03/02 07:49:31;;;;;;;22.85;3.30;;;;;;;;;;5053393;28;20098;-35
2023/03/02 07:51:58;;;;;;;21.48;3.22;;;;;;;;;;5053353;28;20053;-36
2023/03/02 07:54:26;;;;;;;27.13;3.42;;;;;;;;;;5053395;28;20033;-35
2023/03/02 07:56:53;;;;;;;22.85;3.72;;;;;;;;;;5053203;28;20040;-39
2023/03/02 07:59:20;;;;;;;24.33;3.40;;;;;;;;;;5053232;28;20037;-35
2023/03/02 08:01:47;;;;;;;22.13;4.25;;;;;;;;;;5053185;28;20032;-35
2023/03/02 08:04:14;;;;;;;21.67;3.22;;;;;;;;;;5053172;28;20025;-35
2023/03/02 08:06:41;;;;;;;14.18;2.92;;;;;;;;;;5053168;28;20142;-35
2023/03/02 08:09:08;;;;;;;20.58;3.03;;;;;;;;;;5053147;28;20086;-35
2023/03/02 08:11:35;;;;;;;24.48;3.30;;;;;;;;;;5035011;28;20403;-34
2023/03/02 08:14:03;;;;;;;21.38;2.60;;;;;;;;;;5052718;28;20036;-36
2023/03/02 08:16:30;;;;;;;24.33;2.83;;;;;;;;;;5052767;28;20392;-35
2023/03/02 08:18:57;;;;;;;17.35;2.30;;;;;;;;;;5053086;28;20039;-35
2023/03/02 08:21:24;;;;;;;18.58;2.60;;;;;;;;;;5052911;28;20483;-35
2023/03/02 08:23:52;;;;;;;19.48;1.73;;;;;;;;;;5052921;28;20090;-35
2023/03/02 08:26:19;;;;;;;13.88;1.90;;;;;;;;;;5052771;28;20032;-35
2023/03/02 08:28:47;;;;;;;14.40;2.28;;;;;;;;;;5052749;28;20029;-35
2023/03/02 08:31:14;;;;;;;16.65;1.90;;;;;;;;;;5052664;28;20037;-35
2023/03/02 08:33:41;;;;;;;7.38;1.60;;;;;;;;;;5052693;28;20036;-35
2023/03/02 08:36:09;;;;;;;18.80;2.17;;;;;;;;;;5052668;28;20041;-35
2023/03/02 08:38:36;;;;;;;21.90;2.13;;;;;;;;;;5052599;28;20040;-37
2023/03/02 08:41:06;;;;;;;18.98;2.30;;;;;;;;;;5051210;28;20064;-32
2023/03/02 08:43:33;;;;;;;14.23;1.73;;;;;;;;;;5052417;28;20494;-31
2023/03/02 08:46:00;;;;;;;18.85;2.00;;;;;;;;;;5052537;28;20312;-32
2023/03/02 08:48:27;;;;;;;26.23;2.20;;;;;;;;;;5052450;28;20029;-32
2023/03/02 08:51:02;;;;;;;21.20;1.98;;;;;;;;;;5052280;28;20046;-32
2023/03/02 08:53:30;;;;;;;20.88;2.45;;;;;;;;;;5043202;28;20122;-32
2023/03/02 08:55:57;;;;;;;20.45;2.80;;;;;;;;;;5032459;28;20036;-32
2023/03/02 08:58:24;;;;;;;21.92;3.10;;;;;;;;;;5032450;28;20021;-32
2023/03/02 09:00:51;;;;;;;35.40;3.28;;;;;;;;;;5029141;28;20132;-35
2023/03/02 09:03:18;;;;;;;26.70;3.05;;;;;;;;;;5031013;28;20041;-32
2023/03/02 09:05:45;;;;;;;69.43;6.97;;;;;;;;;;5032152;28;20041;-32
2023/03/02 09:08:12;;;;;;;59.45;6.55;;;;;;;;;;5032049;28;20039;-31
2023/03/02 09:10:39;;;;;;;56.53;6.15;;;;;;;;;;5031887;28;20499;-32
2023/03/02 09:13:06;;;;;;;50.28;5.97;;;;;;;;;;5028864;28;20132;-32
2023/03/02 09:15:33;;;;;;;55.17;5.20;;;;;;;;;;5002897;28;20403;-34
2023/03/02 09:18:00;;;;;;;58.85;6.15;;;;;;;;;;5031170;28;20037;-33
2023/03/02 09:20:27;;;;;;;73.30;7.97;;;;;;;;;;5028622;28;20072;-36
2023/03/02 09:22:54;;;;;;;335.58;29.52;;;;;;;;;;5031138;28;20505;-35
2023/03/02 09:25:21;;;;;;;213.48;21.90;;;;;;;;;;5024213;28;20037;-36
2023/03/02 09:27:48;;;;;;;147.93;16.50;;;;;;;;;;5030244;28;20075;-33
2023/03/02 09:30:15;;;;;;;101.65;12.13;;;;;;;;;;5030193;28;20041;-33
2023/03/02 09:32:42;;;;;;;134.95;13.00;;;;;;;;;;5028858;28;20025;-33
2023/03/02 09:35:09;;;;;;;157.80;16.33;;;;;;;;;;5025863;28;20116;-35
2023/03/02 09:37:37;;;;;;;195.88;18.85;;;;;;;;;;5014075;28;20034;-36
2023/03/02 09:40:05;;;;;;;174.80;17.92;;;;;;;;;;5014298;28;20065;-35
2023/03/02 09:42:41;;;;;;;259.50;28.20;;;;;;;;;;5021999;28;20439;-34
2023/03/02 09:45:28;;;;;;;184.27;19.23;;;;;;;;;;5021483;28;20037;-32
2023/03/02 09:48:13;;;;;;;271.58;24.65;;;;;;;;;;4972892;28;20049;-36
2023/03/02 09:50:46;;;;;;;269.15;25.00;;;;;;;;;;5025129;28;20025;-32
2023/03/02 09:53:20;;;;;;;307.15;29.10;;;;;;;;;;5031221;28;20033;-32
2023/03/02 09:55:51;;;;;;;222.93;24.55;;;;;;;;;;5031234;28;20029;-32
2023/03/02 09:58:19;;;;;;;235.10;23.27;;;;;;;;;;5031269;28;20056;-33
2023/03/02 10:00:46;;;;;;;179.43;16.00;;;;;;;;;;5031237;28;20080;-32
2023/03/02 10:03:13;;;;;;;119.90;11.27;;;;;;;;;;5031133;28;20030;-32
2023/03/02 10:05:47;;;;;;;100.82;11.25;;;;;;;;;;5031152;28;20106;-33
2023/03/02 10:08:14;;;;;;;121.82;11.98;;;;;;;;;;5031116;28;20052;-32
2023/03/02 10:11:07;;;;;;;122.60;11.80;;;;;;;;;;5031060;28;20036;-32
2023/03/02 10:13:34;;;;;;;78.80;8.85;;;;;;;;;;4993808;28;20049;-32
2023/03/02 10:16:08;;;;;;;63.75;6.53;;;;;;;;;;5030884;28;20057;-33
2023/03/02 10:18:42;;;;;;;42.13;4.97;;;;;;;;;;5031098;28;20040;-32
2023/03/02 10:21:22;;;;;;;126.45;12.27;;;;;;;;;;5030953;28;20112;-33
2023/03/02 10:23:54;;;;;;;83.13;8.18;;;;;;;;;;5030843;28;20040;-33
2023/03/02 10:26:21;;;;;;;;;;;;;;;;;;5031186;28;20088;-32
2023/03/02 10:28:50;;;;;;;165.93;15.60;;;;;;;;;;5030892;28;20083;-32
2023/03/02 10:31:26;;;;;;;246.15;23.27;;;;;;;;;;5031021;28;20120;-33
2023/03/02 10:33:54;;;;;;;260.63;24.92;;;;;;;;;;5030923;28;20032;-32
2023/03/02 10:36:25;;;;;;;152.88;16.27;;;;;;;;;;5030897;28;20064;-32
2023/03/02 10:38:53;;;;;;;150.93;15.53;;;;;;;;;;5034824;28;20030;-32
2023/03/02 10:41:26;;;;;;;120.32;13.77;;;;;;;;;;5034874;28;20026;-33
2023/03/02 10:43:55;;;;;;;126.50;13.23;;;;;;;;;;5034908;28;20514;-32
2023/03/02 10:46:22;;;;;;;111.88;11.88;;;;;;;;;;5034773;28;20029;-32
2023/03/02 10:48:49;;;;;;;158.27;16.02;;;;;;;;;;5034718;28;20040;-33
2023/03/02 10:51:22;;;;;;;148.27;14.43;;;;;;;;;;5034680;28;20042;-32
2023/03/02 10:53:49;;;;;;;105.85;10.13;;;;;;;;;;5016814;28;20679;-32
2023/03/02 10:56:22;;;;;;;127.88;10.88;;;;;;;;;;5034774;28;20038;-32
2023/03/02 10:58:49;;;;;;;115.47;10.50;;;;;;;;;;5034538;28;20037;-33
2023/03/02 11:01:18;;;;;;;119.82;11.95;;;;;;;;;;5034490;28;20033;-32
2023/03/02 11:04:01;;;;;;;110.93;11.15;;;;;;;;;;5034377;28;20108;-33
2023/03/02 11:06:28;;;;;;;90.13;8.60;;;;;;;;;;5034503;28;20037;-32
2023/03/02 11:08:59;;;;;;;106.07;11.25;;;;;;;;;;5034231;28;20750;-33
2023/03/02 11:11:26;;;;;;;120.28;11.00;;;;;;;;;;5034245;28;20038;-33
2023/03/02 11:13:55;;;;;;;117.18;11.13;;;;;;;;;;5034287;28;20480;-32
2023/03/02 11:16:23;;;;;;;130.18;13.35;;;;;;;;;;5034053;28;20037;-32
2023/03/02 11:18:50;;;;;;;78.82;8.57;;;;;;;;;;5034265;28;20041;-32
2023/03/02 11:21:20;;;;;;;126.95;13.23;;;;;;;;;;5034008;28;20029;-32
2023/03/02 11:24:07;;;;;;;85.57;9.45;;;;;;;;;;5034104;28;20025;-32
2023/03/02 11:26:54;;;;;;;68.68;8.02;;;;;;;;;;5034087;28;20032;-32
2023/03/02 11:29:24;;;;;;;90.38;10.38;;;;;;;;;;5033672;28;20041;-32
2023/03/02 11:31:55;;;;;;;83.53;10.10;;;;;;;;;;5015951;28;20034;-32
2023/03/02 11:34:34;;;;;;;94.70;11.93;;;;;;;;;;5033979;28;20026;-32
2023/03/02 11:37:04;;;;;;;74.53;8.77;;;;;;;;;;5033885;28;20034;-32
2023/03/02 11:39:54;;;;;;;72.82;9.35;;;;;;;;;;5033679;28;20048;-32
2023/03/02 11:42:25;;;;;;;58.17;8.05;;;;;;;;;;5021414;28;20084;-32
2023/03/02 11:44:52;;;;;;;67.20;7.53;;;;;;;;;;5033740;28;20060;-32
2023/03/02 11:47:20;;;;;;;102.63;12.13;;;;;;;;;;5033622;28;20025;-34
2023/03/02 11:49:49;;;;;;;69.60;8.30;;;;;;;;;;5032683;28;20029;-33
2023/03/02 11:52:24;;;;;;;93.35;10.43;;;;;;;;;;5033683;28;20522;-34
2023/03/02 11:55:03;;;;;;;82.25;9.55;;;;;;;;;;5033562;28;20033;-34
2023/03/02 11:57:51;;;;;;;57.83;7.15;;;;;;;;;;5033410;28;20503;-32
2023/03/02 12:00:36;;;;;;;27.70;5.03;;;;;;;;;;5033354;28;20041;-32
2023/03/02 12:03:15;;;;;;;59.10;6.38;;;;;;;;;;5032959;28;20049;-32
2023/03/02 12:06:02;;;;;;;63.22;6.82;;;;;;;;;;5033175;28;20073;-32
2023/03/02 12:08:32;;;;;;;128.88;11.10;;;;;;;;;;5033061;28;20060;-32
2023/03/02 12:10:59;;;;;;;67.20;6.85;;;;;;;;;;5015274;28;20399;-37
2023/03/02 12:13:52;;;;;;;52.70;5.75;;;;;;;;;;5033179;28;20033;-36
2023/03/02 12:16:21;;;;;;;56.97;5.78;;;;;;;;;;4970892;28;20038;-37
2023/03/02 12:18:49;;;;;;;45.85;4.25;;;;;;;;;;4987661;28;20023;-35
2023/03/02 12:21:23;;;;;;;42.45;4.43;;;;;;;;;;4990704;28;20401;-32
2023/03/02 12:23:50;;;;;;;47.15;4.50;;;;;;;;;;4992838;28;20433;-35
2023/03/02 12:26:20;;;;;;;29.30;3.50;;;;;;;;;;4982553;28;20101;-32
2023/03/02 12:29:04;;;;;;;54.20;5.43;;;;;;;;;;4985404;28;20042;-33
2023/03/02 12:31:40;;;;;;;68.95;5.07;;;;;;;;;;4985841;28;20031;-36
2023/03/02 12:34:27;;;;;;;89.18;4.88;;;;;;;;;;4988881;28;20492;-32
2023/03/02 12:37:00;;;;;;;34.40;2.38;;;;;;;;;;4992953;28;20037;-33
2023/03/02 12:39:30;;;;;;;53.97;5.93;;;;;;;;;;4992651;28;20026;-36
2023/03/02 12:42:03;;;;;;;41.00;3.72;;;;;;;;;;4993146;28;20630;-35
2023/03/02 12:44:46;;;;;;;47.88;4.00;;;;;;;;;;4993140;28;20065;-36
2023/03/02 12:47:16;;;;;;;33.75;3.22;;;;;;;;;;4993064;28;20084;-35
2023/03/02 12:49:43;;;;;;;23.80;2.97;;;;;;;;;;4992845;28;20397;-36
2023/03/02 12:52:28;;;;;;;47.60;3.90;;;;;;;;;;4992863;28;20538;-37
2023/03/02 12:55:15;;;;;;;35.83;3.75;;;;;;;;;;4992936;28;20081;-36
2023/03/02 12:57:53;;;;;;;30.60;2.67;;;;;;;;;;4992822;28;20030;-36
2023/03/02 13:00:21;;;;;;;24.00;2.97;;;;;;;;;;4991948;28;20031;-36
2023/03/02 13:02:50;;;;;;;26.42;3.35;;;;;;;;;;4992503;28;20564;-36
2023/03/02 13:05:22;;;;;;;23.50;2.97;;;;;;;;;;4979813;28;20031;-37
2023/03/02 13:08:05;;;;;;;14.25;2.53;;;;;;;;;;4973225;28;20106;-36
2023/03/02 13:10:55;;;;;;;16.45;2.47;;;;;;;;;;4975543;28;20026;-36
2023/03/02 13:13:39;;;;;;;17.08;2.30;;;;;;;;;;4973235;28;20023;-34
2023/03/02 13:16:17;;;;;;;22.13;2.88;;;;;;;;;;4994511;28;20052;-36
2023/03/02 13:18:45;;;;;;;15.90;2.55;;;;;;;;;;5012164;28;20030;-37
2023/03/02 13:21:14;;;;;;;21.48;2.55;;;;;;;;;;5012060;28;20049;-36
2023/03/02 13:23:46;;;;;;;26.15;3.35;;;;;;;;;;5012201;28;20038;-36
2023/03/02 13:26:29;;;;;;;23.15;2.72;;;;;;;;;;5023628;28;20037;-34
2023/03/02 13:29:04;;;;;;;23.90;2.95;;;;;;;;;;5022030;28;20049;-33
2023/03/02 13:31:31;;;;;;;20.08;2.83;;;;;;;;;;5022099;28;20041;-36
2023/03/02 13:33:58;;;;;;;24.85;3.67;;;;;;;;;;5023221;28;20449;-34
2023/03/02 13:36:25;;;;;;;22.00;3.38;;;;;;;;;;5022280;28;20448;-34
2023/03/02 13:38:53;;;;;;;21.38;3.28;;;;;;;;;;5022662;28;20506;-34
2023/03/02 13:41:24;;;;;;;21.67;3.08;;;;;;;;;;5020027;28;20018;-36
2023/03/02 13:43:51;;;;;;;14.85;3.17;;;;;;;;;;5028539;28;20033;-36
2023/03/02 13:46:18;;;;;;;17.67;2.80;;;;;;;;;;5006037;28;20030;-37
2023/03/02 13:48:55;;;;;;;26.65;3.17;;;;;;;;;;5024246;28;20072;-36
2023/03/02 13:51:24;;;;;;;18.05;3.20;;;;;;;;;;5031378;28;20041;-36
2023/03/02 13:53:59;;;;;;;23.67;2.90;;;;;;;;;;5031234;28;20078;-38
2023/03/02 13:56:42;;;;;;;17.35;2.90;;;;;;;;;;5030973;28;20026;-35
2023/03/02 13:59:16;;;;;;;17.20;3.45;;;;;;;;;;5030494;28;20029;-34
2023/03/02 14:01:44;;;;;;;20.83;3.08;;;;;;;;;;5028651;28;20072;-33
2023/03/02 14:04:20;;;;;;;21.48;3.15;;;;;;;;;;5030753;28;20036;-34
2023/03/02 14:06:47;;;;;;;18.75;3.38;;;;;;;;;;5030653;28;20033;-37
2023/03/02 14:09:14;;;;;;;18.83;2.92;;;;;;;;;;5030678;28;20033;-34
2023/03/02 14:11:45;;;;;;;22.42;3.35;;;;;;;;;;5030531;28;20041;-36
2023/03/02 14:14:14;;;;;;;21.92;3.72;;;;;;;;;;5030464;28;20391;-33
2023/03/02 14:16:41;;;;;;;17.55;2.85;;;;;;;;;;5030635;28;20053;-37
2023/03/02 14:19:10;;;;;;;22.20;3.58;;;;;;;;;;5030732;28;20558;-36
2023/03/02 14:21:37;;;;;;;22.25;3.50;;;;;;;;;;5030509;28;20030;-36
2023/03/02 14:24:04;;;;;;;26.48;3.30;;;;;;;;;;5030596;28;20038;-37
2023/03/02 14:26:34;;;;;;;19.52;3.40;;;;;;;;;;5030104;28;20036;-35
2023/03/02 14:29:04;;;;;;;19.67;4.03;;;;;;;;;;5030373;28;20053;-34
2023/03/02 14:31:31;;;;;;;23.02;3.45;;;;;;;;;;5030637;28;20033;-34
2023/03/02 14:33:58;;;;;;;26.27;3.70;;;;;;;;;;5030449;28;20400;-36